Grand Lake, CO (80447)

5:23 PM MDT on September 18, 2014 (GMT -0600)
Beautiful Rocky Mountains | Change Station
CLOSE
Current Station
Personal Weather Station
Location: Grand Lake, CO
Elevation: 8465 ft
Nearby Weather Stations

Elev 8465 ft 40.20 °N, 105.87 °W | Updated 3 minutes ago

Clear
Clear
71.8 °F
Feels Like 76 °F
N
3.7
Wind Variable Wind from SE

Today
High -- | Low -- °F
--% Chance of Precip.
Yesterday
High -- | Low -- °F
Precip. -- in
6:47 AM 7:07 PM
Waning Crescent, 24% visible
Pressure 30.08 in
Visibility 10.0 miles
Clouds Clear
Heat Index 76 °F
Dew Point 37 °F
Humidity 28%
Rainfall 0.00 in
Snow Depth 0 in , 1 in , 87 in
UV 2 out of 12
Pollen 7.70 out of 12
Air Quality Not available.
Flu Activity Not available.
METAR K20V 182315Z AUTO 00000KT 10SM CLR 27/M05 A3008 RMK AO2

More Conditions Fewer Conditions

Pressure 30.08 in
Visibility 10.0 miles
Clouds Clear
Heat Index 76 °F
Dew Point 37 °F
Humidity 28%
Rainfall 0.00 in
Snow Depth 0 in , 1 in , 87 in
UV 2 out of 12
Pollen 7.70 out of 12
Air Quality Not available.
Flu Activity Not available.
METAR K20V 182315Z AUTO 00000KT 10SM CLR 27/M05 A3008 RMK AO2

More Conditions Fewer Conditions

10-Day Weather Forecast

Almanac

Astronomy

Sep. 18, 2014 Rise Set
Actual Time 6:47 AM MDT 7:07 PM MDT
Civil Twilight 6:20 AM MDT 7:34 PM MDT
Nautical Twilight 5:48 AM MDT 8:06 PM MDT
Astronomical Twilight 5:15 AM MDT 8:38 PM MDT
Moon 1:41 AM MDT 4:00 PM MDT
Length of Visible Light 13h 14m
Length of Day
12h 19m
Tomorrow will be 2m 37s shorter.
Waning Crescent, 24% of the Moon is Illuminated
Today
Waning Crescent
Sep 24
New
Oct 1
First Quarter
Oct 8
Full
Oct 15
Last Quarter

Today's Extremes

State Highs State Lows

Community

WunderPhotos

Upload Photos

1,754,484 photos uploaded!

WunderBlogs® & News

Nearby

Snow Depth

Station Depth Elevation
Lone Cone 0 in 9600 ft
Mancos 1 in 10000 ft
Vail Mountain 87 in 10300 ft
Jones Pass 0 in 10400 ft
Sharkstooth 0 in 10720 ft

Earthquake Activity

City Distance Mag. Time & Date
No recent earthquake activity has been reported nearby.
Minimum magnitude displayed is 2.5.

Coastal Water Temperatures

Place Temperature
No Stations Reporting

Nearby Weather Stations